KGIF/GIF METAR and TAF weather

Enter ICAO airport designator
Station Type Date Time Source
KGIF METAR 2020/09/22 00:53 UTC NOAA

KGIF 220053Z AUTO 05009KT 10SM SCT045 25/18 A3008 RMK AO2 SLP184 T02500178


Station Type Date Time Source
KGIF Decoded METAR 2020/09/22 00:53 UTC NOAA

WINTER HAVENS GILBERT AIRPORT , FL, United States (KGIF) 28-04N 81-45W 43M
Sep 21, 2020 - 08:53 PM EDT / 2020.09.22 0053 UTC
Wind: from the NE (050 degrees) at 10 MPH (9 KT):0
Visibility: 10 mile(s):0
Sky conditions: partly cloudy
Temperature: 77.0 F (25.0 C)
Dew Point: 64.0 F (17.8 C)
Relative Humidity: 64%
Pressure (altimeter): 30.08 in. Hg (1018 hPa)
ob: KGIF 220053Z AUTO 05009KT 10SM SCT045 25/18 A3008 RMK AO2 SLP184 T02500178
cycle: 1

Station Type Date Time Source
KGIF TAF UTC NOAA

Error!

Example: see airport list